createdAt,value
2019-03-17T00:00:23.689Z,9.70
2019-03-17T00:02:54.783Z,9.70
2019-03-17T00:05:25.929Z,9.70
2019-03-17T00:07:56.657Z,9.60
2019-03-17T00:10:27.826Z,9.60
2019-03-17T00:12:58.336Z,9.50
2019-03-17T00:15:29.295Z,9.50
2019-03-17T00:18:00.431Z,9.40
2019-03-17T00:20:31.305Z,9.40
2019-03-17T00:23:02.557Z,9.30
2019-03-17T00:25:33.067Z,9.30
2019-03-17T00:28:03.129Z,9.20
2019-03-17T00:30:33.647Z,9.20
2019-03-17T00:33:05.075Z,9.30
2019-03-17T00:35:35.812Z,9.30
2019-03-17T00:38:06.479Z,9.30
2019-03-17T00:40:37.281Z,9.40
2019-03-17T00:43:08.027Z,9.40
2019-03-17T00:45:38.154Z,9.50
2019-03-17T00:48:08.681Z,9.50
2019-03-17T00:50:39.625Z,9.50
2019-03-17T00:53:10.178Z,9.60
2019-03-17T00:55:40.618Z,9.60
2019-03-17T00:58:12.056Z,9.60
2019-03-17T01:00:42.856Z,9.60
2019-03-17T01:03:13.933Z,9.60
2019-03-17T01:05:45.083Z,9.70
2019-03-17T01:08:15.505Z,9.70
2019-03-17T01:10:46.189Z,9.70
2019-03-17T01:13:16.679Z,9.60
2019-03-17T01:15:48.644Z,9.60
2019-03-17T01:18:19.219Z,9.60
2019-03-17T01:20:51.556Z,9.50
2019-03-17T01:23:22.523Z,9.50
2019-03-17T01:25:52.832Z,9.50
2019-03-17T01:28:23.774Z,9.50
2019-03-17T01:30:54.711Z,9.50
2019-03-17T01:33:25.618Z,9.50
2019-03-17T01:35:56.798Z,9.60
2019-03-17T01:38:27.491Z,9.60
2019-03-17T01:40:58.281Z,9.50
2019-03-17T01:43:29.023Z,9.60
2019-03-17T01:45:59.486Z,9.60
2019-03-17T01:48:30.438Z,9.60
2019-03-17T01:51:01.646Z,9.60
2019-03-17T01:53:32.386Z,9.60
2019-03-17T01:56:03.122Z,9.60
2019-03-17T01:58:33.806Z,9.60
2019-03-17T02:01:06.041Z,9.50
2019-03-17T02:03:36.516Z,9.50
2019-03-17T02:06:07.438Z,9.50
2019-03-17T02:08:38.370Z,9.40
2019-03-17T02:11:09.489Z,9.40
2019-03-17T02:13:40.134Z,9.40
2019-03-17T02:16:11.658Z,9.40
2019-03-17T02:18:42.196Z,9.40
2019-03-17T02:21:12.554Z,9.40
2019-03-17T02:23:43.501Z,9.40
2019-03-17T02:26:13.283Z,9.40
2019-03-17T02:28:44.770Z,9.40
2019-03-17T02:31:15.918Z,9.30
2019-03-17T02:33:47.272Z,9.30
2019-03-17T02:36:18.006Z,9.30
2019-03-17T02:38:49.365Z,9.30
2019-03-17T02:41:19.483Z,9.30
2019-03-17T02:43:49.601Z,9.30
2019-03-17T02:46:19.933Z,9.30
2019-03-17T02:48:51.920Z,9.30
2019-03-17T02:51:23.059Z,9.40
2019-03-17T02:53:54.199Z,9.40
2019-03-17T02:56:25.349Z,9.40
2019-03-17T02:58:56.691Z,9.40
2019-03-17T03:01:27.441Z,9.40
2019-03-17T03:03:58.177Z,9.40
2019-03-17T03:06:28.640Z,9.40
2019-03-17T03:08:59.052Z,9.40
2019-03-17T03:11:30.390Z,9.40
2019-03-17T03:14:01.074Z,9.40
2019-03-17T03:16:31.184Z,9.40
2019-03-17T03:19:01.830Z,9.30
2019-03-17T03:21:32.339Z,9.30
2019-03-17T03:24:03.468Z,9.30
2019-03-17T03:26:34.071Z,9.30
2019-03-17T03:29:04.896Z,9.30
2019-03-17T03:31:35.682Z,9.30
2019-03-17T03:34:06.623Z,9.30
2019-03-17T03:36:37.358Z,9.30
2019-03-17T03:39:08.925Z,9.30
2019-03-17T03:41:40.067Z,9.30
2019-03-17T03:44:11.035Z,9.30
2019-03-17T03:46:42.369Z,9.30
2019-03-17T03:49:12.886Z,9.40
2019-03-17T03:51:44.051Z,9.40
2019-03-17T03:54:14.338Z,9.40
2019-03-17T03:56:45.117Z,9.30
2019-03-17T03:59:16.063Z,9.30
2019-03-17T04:01:47.205Z,9.30
2019-03-17T04:04:18.963Z,9.30
2019-03-17T04:06:50.117Z,9.40
2019-03-17T04:09:21.068Z,9.30
2019-03-17T04:11:51.795Z,9.30
2019-03-17T04:14:22.486Z,9.30
2019-03-17T04:16:53.484Z,9.20
2019-03-17T04:19:24.850Z,9.20
2019-03-17T04:21:55.707Z,9.20
2019-03-17T04:24:26.721Z,9.20
2019-03-17T04:26:57.657Z,9.10
2019-03-17T04:29:28.417Z,9.10
2019-03-17T04:31:59.134Z,9.10
2019-03-17T04:34:30.027Z,9.10
2019-03-17T04:37:01.234Z,9.10
2019-03-17T04:39:31.798Z,9.00
2019-03-17T04:42:02.093Z,9.00
2019-03-17T04:44:33.224Z,8.90
2019-03-17T04:47:03.708Z,8.90
2019-03-17T04:49:34.751Z,8.90
2019-03-17T04:52:06.056Z,8.90
2019-03-17T04:54:36.540Z,8.90
2019-03-17T04:57:07.061Z,9.00
2019-03-17T04:59:38.970Z,9.00
2019-03-17T05:02:09.476Z,9.10
2019-03-17T05:04:40.169Z,9.20
2019-03-17T05:07:10.210Z,9.30
2019-03-17T05:09:41.049Z,9.30
2019-03-17T05:12:11.960Z,9.40
2019-03-17T05:14:42.913Z,9.50
2019-03-17T05:17:13.781Z,9.50
2019-03-17T05:19:44.485Z,9.60
2019-03-17T05:22:14.645Z,9.70
2019-03-17T05:24:46.075Z,9.70
2019-03-17T05:27:17.223Z,9.80
2019-03-17T05:29:47.770Z,9.90
2019-03-17T05:32:18.500Z,10.00
2019-03-17T05:34:49.443Z,10.00
2019-03-17T05:37:20.173Z,10.00
2019-03-17T05:39:51.128Z,10.10
2019-03-17T05:42:21.372Z,10.10
2019-03-17T05:44:52.788Z,10.20
2019-03-17T05:47:23.265Z,10.20
2019-03-17T05:49:53.907Z,10.30
2019-03-17T05:52:25.628Z,10.30
2019-03-17T05:54:56.766Z,10.30
2019-03-17T05:57:27.712Z,10.30
2019-03-17T05:59:58.770Z,10.30
2019-03-17T06:02:29.598Z,10.40
2019-03-17T06:05:00.970Z,10.30
2019-03-17T06:07:31.892Z,10.40
2019-03-17T06:10:02.590Z,10.40
2019-03-17T06:12:33.095Z,10.40
2019-03-17T06:15:04.108Z,10.40
2019-03-17T06:17:35.264Z,10.40
2019-03-17T06:20:07.430Z,10.40
2019-03-17T06:22:38.370Z,10.50
2019-03-17T06:25:09.268Z,10.50
2019-03-17T06:27:40.475Z,10.50
2019-03-17T06:30:10.987Z,10.50
2019-03-17T06:32:41.867Z,10.50
2019-03-17T06:35:13.492Z,10.50
2019-03-17T06:37:44.650Z,10.50
2019-03-17T06:40:15.577Z,10.50
2019-03-17T06:42:46.497Z,10.60
2019-03-17T06:45:17.694Z,10.60
2019-03-17T06:47:48.208Z,10.60
2019-03-17T06:50:18.756Z,10.60
2019-03-17T06:52:49.299Z,10.60
2019-03-17T06:55:20.513Z,10.70
2019-03-17T06:57:51.776Z,10.70
2019-03-17T07:00:21.821Z,10.70
2019-03-17T07:02:52.846Z,10.70
2019-03-17T07:05:23.381Z,10.70
2019-03-17T07:07:54.108Z,10.70
2019-03-17T07:10:24.942Z,10.70
2019-03-17T07:12:55.531Z,10.70
2019-03-17T07:15:26.487Z,10.60
2019-03-17T07:17:57.273Z,10.60
2019-03-17T07:20:27.803Z,10.60
2019-03-17T07:22:58.558Z,10.60
2019-03-17T07:25:28.627Z,10.60
2019-03-17T07:27:59.631Z,10.70
2019-03-17T07:30:30.759Z,10.70
2019-03-17T07:33:01.503Z,10.70
2019-03-17T07:35:32.449Z,10.70
2019-03-17T07:38:03.589Z,10.70
2019-03-17T07:40:35.495Z,10.70
2019-03-17T07:43:06.708Z,10.60
2019-03-17T07:45:39.088Z,10.70
2019-03-17T07:48:09.816Z,10.70
2019-03-17T07:50:46.443Z,10.70
2019-03-17T07:53:16.977Z,10.70
2019-03-17T07:55:48.191Z,10.70
2019-03-17T07:58:18.971Z,10.70
2019-03-17T08:00:50.063Z,10.70
2019-03-17T08:03:20.113Z,10.70
2019-03-17T08:05:50.671Z,10.70
2019-03-17T08:08:21.196Z,10.70
2019-03-17T08:10:51.995Z,10.60
2019-03-17T08:13:23.146Z,10.60
2019-03-17T08:16:10.450Z,10.60
2019-03-17T08:18:41.759Z,10.60
2019-03-17T08:21:12.357Z,10.50
2019-03-17T08:23:43.092Z,10.50
2019-03-17T08:26:13.627Z,10.50
2019-03-17T08:28:44.457Z,10.50
2019-03-17T08:31:14.774Z,10.50
2019-03-17T08:33:45.641Z,10.50
2019-03-17T08:36:17.024Z,10.50
2019-03-17T08:38:47.896Z,10.50
2019-03-17T08:41:18.842Z,10.50
2019-03-17T08:43:54.146Z,10.50
2019-03-17T08:46:22.205Z,10.50
2019-03-17T08:48:53.347Z,10.50
2019-03-17T08:51:24.742Z,10.50
2019-03-17T08:53:55.644Z,10.50
2019-03-17T08:56:26.599Z,10.50
2019-03-17T08:58:57.124Z,10.50
2019-03-17T09:01:28.270Z,10.50
2019-03-17T09:03:58.798Z,10.50
2019-03-17T09:06:30.162Z,10.60
2019-03-17T09:09:00.814Z,10.60
2019-03-17T09:11:32.398Z,10.60
2019-03-17T09:14:03.600Z,10.60
2019-03-17T09:16:34.466Z,10.70
2019-03-17T09:19:05.188Z,10.80
2019-03-17T09:21:35.962Z,10.80
2019-03-17T09:24:16.630Z,10.90
2019-03-17T09:26:38.931Z,10.90
2019-03-17T09:29:09.200Z,11.00
2019-03-17T09:31:40.048Z,11.10
2019-03-17T09:34:10.942Z,11.10
2019-03-17T09:36:42.085Z,11.10
2019-03-17T09:39:12.817Z,11.10
2019-03-17T09:41:44.167Z,11.10
2019-03-17T09:44:15.319Z,11.10
2019-03-17T09:46:46.270Z,11.10
2019-03-17T09:49:16.774Z,11.20
2019-03-17T09:51:47.294Z,11.20
2019-03-17T09:54:17.867Z,11.30
2019-03-17T09:56:49.233Z,11.40
2019-03-17T09:59:19.719Z,11.50
2019-03-17T10:01:50.490Z,11.60
2019-03-17T10:04:21.759Z,11.70
2019-03-17T10:07:02.055Z,11.80
2019-03-17T10:09:33.560Z,11.90
2019-03-17T10:12:04.327Z,12.00
2019-03-17T10:14:35.655Z,12.00
2019-03-17T10:17:05.977Z,12.00
2019-03-17T10:19:36.804Z,12.10
2019-03-17T10:22:07.232Z,12.00
2019-03-17T10:24:37.757Z,11.90
2019-03-17T10:27:08.318Z,11.90
2019-03-17T10:29:40.093Z,11.90
2019-03-17T10:32:10.989Z,11.80
2019-03-17T10:34:41.383Z,11.70
2019-03-17T10:37:12.267Z,11.50
2019-03-17T10:39:44.057Z,11.40
2019-03-17T10:42:16.237Z,11.30
2019-03-17T10:44:47.956Z,11.10
2019-03-17T10:47:18.529Z,11.00
2019-03-17T10:49:49.058Z,11.00
2019-03-17T10:52:21.041Z,11.00
2019-03-17T10:54:52.175Z,11.00
2019-03-17T10:57:22.929Z,10.90
2019-03-17T10:59:53.359Z,10.90
2019-03-17T11:02:23.989Z,10.80
2019-03-17T11:04:55.132Z,10.70
2019-03-17T11:07:26.247Z,10.60
2019-03-17T11:09:56.970Z,10.50
2019-03-17T11:12:28.989Z,10.30
2019-03-17T11:14:59.719Z,10.00
2019-03-17T11:17:30.892Z,9.70
2019-03-17T11:20:01.571Z,9.60
2019-03-17T11:22:32.145Z,9.50
2019-03-17T11:25:02.285Z,9.60
2019-03-17T11:27:32.910Z,9.60
2019-03-17T11:30:05.610Z,9.50
2019-03-17T11:32:36.534Z,9.50
2019-03-17T11:35:07.064Z,9.40
2019-03-17T11:37:37.973Z,9.30
2019-03-17T11:40:10.393Z,9.20
2019-03-17T11:42:41.577Z,9.20
2019-03-17T11:45:13.362Z,9.10
2019-03-17T11:47:43.781Z,9.20
2019-03-17T11:50:15.388Z,9.20
2019-03-17T11:52:46.742Z,9.30
2019-03-17T11:55:18.889Z,9.30
2019-03-17T11:57:49.451Z,9.30
2019-03-17T12:00:20.187Z,9.00
2019-03-17T12:02:50.863Z,8.80
2019-03-17T12:05:21.874Z,8.60
2019-03-17T12:07:52.823Z,8.30
2019-03-17T12:10:23.345Z,8.20
2019-03-17T12:12:54.027Z,8.10
2019-03-17T12:15:24.374Z,8.00
2019-03-17T12:17:55.356Z,8.00
2019-03-17T12:20:26.086Z,8.10
2019-03-17T12:22:57.240Z,8.10
2019-03-17T12:25:28.212Z,8.20
2019-03-17T12:27:58.872Z,8.20
2019-03-17T12:30:29.805Z,8.20
2019-03-17T12:33:02.032Z,8.20
2019-03-17T12:35:32.504Z,8.20
2019-03-17T12:38:03.515Z,8.20
2019-03-17T12:40:34.658Z,8.20
2019-03-17T12:43:05.598Z,8.20
2019-03-17T12:45:36.753Z,8.20
2019-03-17T12:48:07.100Z,8.20
2019-03-17T12:50:37.547Z,8.20
2019-03-17T12:53:08.191Z,8.30
2019-03-17T12:55:39.086Z,8.40
2019-03-17T12:58:10.030Z,8.40
2019-03-17T13:00:40.826Z,8.50
2019-03-17T13:03:11.754Z,8.60
2019-03-17T13:05:42.289Z,8.70
2019-03-17T13:08:13.814Z,8.70
2019-03-17T13:10:44.751Z,8.80
2019-03-17T13:13:15.367Z,8.80
2019-03-17T13:15:45.754Z,8.90
2019-03-17T13:18:16.594Z,8.90
2019-03-17T13:20:48.102Z,8.90
2019-03-17T13:23:18.438Z,9.00
2019-03-17T13:25:49.811Z,9.00
2019-03-17T13:28:20.326Z,9.10
2019-03-17T13:30:51.882Z,9.10
2019-03-17T13:33:22.522Z,9.30
2019-03-17T13:35:52.764Z,9.50
2019-03-17T13:38:23.282Z,9.60
2019-03-17T13:40:54.234Z,9.90
2019-03-17T13:43:24.243Z,10.00
2019-03-17T13:45:55.252Z,10.00
2019-03-17T13:48:25.639Z,10.00
2019-03-17T13:50:55.602Z,10.00
2019-03-17T13:53:25.685Z,10.10
2019-03-17T13:55:55.789Z,10.10
2019-03-17T13:58:26.738Z,10.40
2019-03-17T14:00:57.058Z,10.80
2019-03-17T14:03:26.867Z,11.40
2019-03-17T14:05:57.438Z,11.60
2019-03-17T14:08:27.434Z,11.90
2019-03-17T14:10:57.760Z,12.40
2019-03-17T14:13:29.198Z,13.10
2019-03-17T14:16:00.068Z,14.50
2019-03-17T14:18:30.402Z,15.50
2019-03-17T14:21:00.508Z,16.60
2019-03-17T14:23:31.401Z,16.90
2019-03-17T14:26:02.098Z,16.90
2019-03-17T14:28:32.916Z,16.60
2019-03-17T14:31:03.463Z,16.70
2019-03-17T14:33:34.403Z,16.80
2019-03-17T14:36:04.759Z,16.80
2019-03-17T14:38:35.340Z,16.80
2019-03-17T14:41:06.211Z,17.10
2019-03-17T14:43:36.705Z,16.90
2019-03-17T14:46:07.287Z,15.90
2019-03-17T14:48:37.547Z,14.80
2019-03-17T14:51:08.573Z,13.80
2019-03-17T14:53:38.701Z,13.20
2019-03-17T14:56:09.417Z,12.90
2019-03-17T14:58:39.799Z,12.90
2019-03-17T15:01:10.477Z,13.00
2019-03-17T15:03:40.599Z,12.70
2019-03-17T15:06:10.738Z,12.40
2019-03-17T15:08:41.045Z,12.00
2019-03-17T15:11:11.513Z,11.60
2019-03-17T15:13:41.923Z,11.30
2019-03-17T15:16:12.659Z,11.10
2019-03-17T15:18:43.605Z,11.00
2019-03-17T15:21:14.634Z,11.40
2019-03-17T15:23:45.228Z,12.60
2019-03-17T15:26:16.031Z,13.50
2019-03-17T15:28:46.621Z,13.10
2019-03-17T15:31:17.630Z,12.50
2019-03-17T15:33:48.648Z,12.10
2019-03-17T15:36:19.591Z,11.90
2019-03-17T15:38:50.127Z,11.80
2019-03-17T15:41:20.683Z,11.60
2019-03-17T15:43:51.611Z,11.50
2019-03-17T15:46:22.554Z,11.40
2019-03-17T15:48:53.078Z,11.30
2019-03-17T15:51:25.224Z,11.20
2019-03-17T15:53:56.418Z,11.10
2019-03-17T15:56:27.476Z,10.90
2019-03-17T15:58:58.031Z,10.50
2019-03-17T16:01:28.546Z,10.00
2019-03-17T16:03:59.262Z,9.50
2019-03-17T16:06:29.817Z,9.20
2019-03-17T16:09:01.242Z,8.90
2019-03-17T16:11:31.888Z,8.70
2019-03-17T16:14:02.511Z,8.60
2019-03-17T16:16:33.107Z,8.50
2019-03-17T16:19:03.525Z,8.50
2019-03-17T16:21:34.317Z,8.50
2019-03-17T16:24:05.204Z,8.50
2019-03-17T16:26:35.740Z,8.40
2019-03-17T16:29:07.936Z,8.40
2019-03-17T16:31:39.112Z,8.40
2019-03-17T16:34:10.468Z,8.30
2019-03-17T16:36:41.112Z,8.20
2019-03-17T16:39:11.987Z,8.10
2019-03-17T16:41:43.726Z,8.10
2019-03-17T16:44:15.063Z,8.10
2019-03-17T16:46:45.794Z,8.00
2019-03-17T16:49:16.318Z,8.00
2019-03-17T16:51:46.334Z,8.00
2019-03-17T16:54:17.394Z,8.00
2019-03-17T16:56:48.390Z,8.00
2019-03-17T16:59:19.955Z,8.00
2019-03-17T17:01:51.872Z,7.90
2019-03-17T17:04:22.403Z,7.90
2019-03-17T17:06:53.219Z,7.90
2019-03-17T17:09:24.290Z,7.90
2019-03-17T17:11:57.482Z,7.80
2019-03-17T17:14:28.018Z,7.90
2019-03-17T17:16:58.271Z,7.90
2019-03-17T17:19:29.003Z,7.90
2019-03-17T17:21:59.623Z,7.80
2019-03-17T17:24:30.566Z,7.80
2019-03-17T17:27:01.226Z,7.80
2019-03-17T17:29:32.935Z,7.80
2019-03-17T17:32:05.074Z,7.80
2019-03-17T17:34:35.559Z,7.70
2019-03-17T17:37:06.515Z,7.70
2019-03-17T17:39:37.084Z,7.70
2019-03-17T17:42:09.875Z,7.70
2019-03-17T17:44:40.375Z,7.70
2019-03-17T17:47:10.680Z,7.60
2019-03-17T17:49:40.989Z,7.60
2019-03-17T17:52:11.962Z,7.50
2019-03-17T17:54:42.857Z,7.50
2019-03-17T17:57:13.331Z,7.40
2019-03-17T17:59:44.153Z,7.50
2019-03-17T18:02:14.481Z,7.40
2019-03-17T18:04:45.462Z,7.40
2019-03-17T18:07:16.309Z,7.40
2019-03-17T18:09:47.189Z,7.40
2019-03-17T18:12:21.194Z,7.40
2019-03-17T18:14:50.871Z,7.50
2019-03-17T18:17:21.781Z,7.50
2019-03-17T18:19:52.496Z,7.50
2019-03-17T18:22:23.691Z,7.50
2019-03-17T18:24:54.637Z,7.40
2019-03-17T18:27:25.357Z,7.40
2019-03-17T18:29:55.813Z,7.40
2019-03-17T18:32:26.848Z,7.30
2019-03-17T18:34:57.779Z,7.30
2019-03-17T18:37:28.387Z,7.30
2019-03-17T18:39:59.149Z,7.30
2019-03-17T18:42:33.358Z,7.30
2019-03-17T18:45:02.593Z,7.30
2019-03-17T18:47:33.557Z,7.30
2019-03-17T18:50:05.907Z,7.30
2019-03-17T18:52:36.436Z,7.30
2019-03-17T18:55:06.973Z,7.30
2019-03-17T18:57:37.926Z,7.30
2019-03-17T19:00:12.137Z,7.30
2019-03-17T19:02:44.310Z,7.20
2019-03-17T19:05:14.253Z,7.10
2019-03-17T19:07:45.373Z,7.00
2019-03-17T19:10:15.909Z,6.90
2019-03-17T19:12:46.563Z,6.90
2019-03-17T19:15:17.375Z,6.80
2019-03-17T19:17:47.863Z,6.70
2019-03-17T19:20:20.100Z,6.70
2019-03-17T19:22:50.837Z,6.60
2019-03-17T19:25:21.205Z,6.50
2019-03-17T19:27:51.876Z,6.40
2019-03-17T19:30:24.275Z,6.30
2019-03-17T19:32:54.813Z,6.20
2019-03-17T19:35:25.548Z,6.10
2019-03-17T19:37:55.876Z,6.10
2019-03-17T19:40:25.774Z,6.00
2019-03-17T19:42:59.632Z,5.90
2019-03-17T19:45:30.226Z,5.80
2019-03-17T19:48:01.088Z,5.80
2019-03-17T19:50:33.880Z,5.80
2019-03-17T19:53:04.814Z,5.80
2019-03-17T19:55:35.724Z,5.80
2019-03-17T19:58:06.115Z,5.70
2019-03-17T20:00:38.486Z,5.70
2019-03-17T20:03:09.620Z,5.70
2019-03-17T20:05:40.130Z,5.70
2019-03-17T20:08:14.982Z,5.70
2019-03-17T20:10:45.466Z,5.70
2019-03-17T20:13:16.248Z,5.70
2019-03-17T20:15:46.958Z,5.70
2019-03-17T20:18:17.253Z,5.60
2019-03-17T20:20:48.687Z,5.60
2019-03-17T20:23:21.503Z,5.60
2019-03-17T20:25:52.609Z,5.50
2019-03-17T20:28:23.554Z,5.60
2019-03-17T20:30:54.116Z,5.50
2019-03-17T20:33:25.027Z,5.50
2019-03-17T20:35:55.061Z,5.50
2019-03-17T20:38:25.620Z,5.40
2019-03-17T20:40:56.218Z,5.40
2019-03-17T20:43:34.980Z,5.40
2019-03-17T20:45:58.807Z,5.40
2019-03-17T20:48:30.476Z,5.40
2019-03-17T20:51:01.414Z,5.40
2019-03-17T20:53:32.168Z,5.40
2019-03-17T20:56:03.087Z,5.40
2019-03-17T20:58:33.754Z,5.40
2019-03-17T21:01:03.800Z,5.40
2019-03-17T21:03:34.350Z,5.40
2019-03-17T21:06:04.998Z,5.40
2019-03-17T21:08:36.387Z,5.50
2019-03-17T21:11:07.328Z,5.60
2019-03-17T21:13:46.628Z,5.70
2019-03-17T21:16:11.070Z,5.70
2019-03-17T21:18:42.182Z,5.80
2019-03-17T21:21:13.155Z,5.80
2019-03-17T21:23:46.290Z,5.80
2019-03-17T21:26:15.797Z,5.80
2019-03-17T21:28:46.187Z,5.80
2019-03-17T21:31:17.122Z,5.70
2019-03-17T21:33:48.075Z,5.70
2019-03-17T21:36:20.114Z,5.70
2019-03-17T21:38:50.982Z,5.70
2019-03-17T21:41:20.742Z,5.60
2019-03-17T21:43:59.344Z,5.60
2019-03-17T21:46:23.208Z,5.50
2019-03-17T21:48:53.659Z,5.50
2019-03-17T21:51:25.094Z,5.50
2019-03-17T21:53:56.235Z,5.50
2019-03-17T21:56:27.057Z,5.50
2019-03-17T21:58:57.916Z,5.50
2019-03-17T22:01:28.861Z,5.60
2019-03-17T22:03:59.599Z,5.60
2019-03-17T22:06:30.542Z,5.60
2019-03-17T22:09:01.781Z,5.60
2019-03-17T22:11:33.859Z,5.60
2019-03-17T22:14:11.940Z,5.50
2019-03-17T22:16:37.796Z,5.50
2019-03-17T22:19:07.905Z,5.50
2019-03-17T22:21:38.869Z,5.40
2019-03-17T22:24:10.215Z,5.30
2019-03-17T22:26:40.747Z,5.30
2019-03-17T22:29:11.222Z,5.20
2019-03-17T22:31:41.871Z,5.10
2019-03-17T22:34:12.759Z,5.00
2019-03-17T22:36:43.289Z,4.90
2019-03-17T22:39:14.165Z,4.90
2019-03-17T22:41:44.969Z,4.80
2019-03-17T22:44:24.220Z,4.80
2019-03-17T22:46:48.907Z,4.70
2019-03-17T22:49:19.377Z,4.70
2019-03-17T22:51:51.011Z,4.70
2019-03-17T22:54:21.741Z,4.80
2019-03-17T22:56:52.683Z,4.80
2019-03-17T22:59:23.572Z,4.90
2019-03-17T23:01:54.163Z,4.90
2019-03-17T23:04:24.865Z,4.90
2019-03-17T23:06:55.639Z,4.90
2019-03-17T23:09:26.342Z,4.80
2019-03-17T23:11:57.502Z,4.80
2019-03-17T23:14:36.545Z,4.70
2019-03-17T23:17:00.843Z,4.70
2019-03-17T23:19:31.592Z,4.60
2019-03-17T23:22:02.105Z,4.60
2019-03-17T23:24:33.257Z,4.50
2019-03-17T23:27:04.415Z,4.50
2019-03-17T23:29:35.769Z,4.50
2019-03-17T23:32:06.654Z,4.50
2019-03-17T23:34:37.161Z,4.50
2019-03-17T23:37:07.373Z,4.50
2019-03-17T23:39:38.319Z,4.50
2019-03-17T23:42:09.461Z,4.40
2019-03-17T23:44:48.925Z,4.40
2019-03-17T23:47:12.507Z,4.40
2019-03-17T23:49:43.160Z,4.40
2019-03-17T23:52:13.223Z,4.40
2019-03-17T23:54:44.330Z,4.30
2019-03-17T23:57:14.909Z,4.30
2019-03-17T23:59:45.714Z,4.30
